Time;durP1;ratioP1;P1;durP2;ratioP2;P2;SDS_P1;SDS_P2;PMS_P1;PMS_P2;Temp;Humidity;BMP_temperature;BMP_pressure;BME280_temperature;BME280_humidity;BME280_pressure;Samples;Min_cycle;Max_cycle;Signal;HPM_P1;HPM_P2
2022/07/21 00:00:27;;;;;;;7.38;2.50;;;;;;;;;;10357235;28;20053;-74
2022/07/21 00:05:27;;;;;;;4.45;2.38;;;;;;;;;;10356857;28;20151;-74
2022/07/21 00:10:27;;;;;;;2.40;2.20;;;;;;;;;;10374363;28;20022;-74
2022/07/21 00:15:28;;;;;;;6.15;2.72;;;;;;;;;;10356424;28;20809;-74
2022/07/21 00:20:30;;;;;;;3.57;2.30;;;;;;;;;;10356388;28;20416;-74
2022/07/21 00:25:30;;;;;;;5.10;2.35;;;;;;;;;;10356133;28;20034;-74
2022/07/21 00:30:30;;;;;;;2.83;2.47;;;;;;;;;;10356464;28;20396;-75
2022/07/21 00:35:31;;;;;;;3.50;2.20;;;;;;;;;;10355623;28;20042;-74
2022/07/21 00:40:31;;;;;;;4.47;2.73;;;;;;;;;;10373089;28;20515;-74
2022/07/21 00:45:31;;;;;;;4.67;2.30;;;;;;;;;;10372901;28;20120;-74
2022/07/21 00:50:32;;;;;;;6.80;2.55;;;;;;;;;;10372835;28;20281;-75
2022/07/21 00:55:33;;;;;;;3.28;2.80;;;;;;;;;;10384229;28;20072;-75
2022/07/21 01:00:33;;;;;;;4.43;2.80;;;;;;;;;;10354675;28;20542;-74
2022/07/21 01:05:34;;;;;;;3.17;2.57;;;;;;;;;;10354397;28;20435;-74
2022/07/21 01:10:34;;;;;;;7.30;2.33;;;;;;;;;;10354490;28;20261;-74
2022/07/21 01:15:34;;;;;;;3.10;2.43;;;;;;;;;;10354278;28;20088;-75
2022/07/21 01:20:35;;;;;;;2.92;2.45;;;;;;;;;;10354203;28;20033;-74
2022/07/21 01:25:35;;;;;;;7.47;2.30;;;;;;;;;;10354137;28;20026;-75
2022/07/21 01:30:36;;;;;;;3.88;2.80;;;;;;;;;;10337672;28;20503;-75
2022/07/21 01:35:36;;;;;;;3.63;2.55;;;;;;;;;;10353830;28;20467;-74
2022/07/21 01:45:55;;;;;;;5.95;2.72;;;;;;;;;;10370932;28;20030;-75
2022/07/21 01:50:55;;;;;;;4.35;2.58;;;;;;;;;;10353177;28;20030;-76
2022/07/21 01:55:56;;;;;;;5.10;2.53;;;;;;;;;;10352945;28;20025;-75
2022/07/21 02:00:56;;;;;;;5.25;3.35;;;;;;;;;;10352995;28;20115;-74
2022/07/21 02:06:00;;;;;;;3.37;2.60;;;;;;;;;;10370751;28;20038;-77
2022/07/21 02:11:01;;;;;;;3.90;3.00;;;;;;;;;;10353164;28;20096;-74
2022/07/21 02:16:01;;;;;;;7.80;3.03;;;;;;;;;;10356008;28;20448;-76
2022/07/21 02:21:02;;;;;;;6.78;2.60;;;;;;;;;;10360980;28;20408;-75
2022/07/21 02:26:03;;;;;;;6.05;3.00;;;;;;;;;;10360592;28;20025;-75
2022/07/21 02:31:03;;;;;;;9.77;3.17;;;;;;;;;;10361255;28;20072;-75
2022/07/21 02:36:04;;;;;;;3.50;2.73;;;;;;;;;;10360792;28;20264;-76
2022/07/21 02:41:04;;;;;;;5.50;3.37;;;;;;;;;;10360267;28;20092;-75
2022/07/21 02:46:04;;;;;;;5.57;2.83;;;;;;;;;;10377683;28;20346;-75
2022/07/21 02:51:05;;;;;;;3.25;2.95;;;;;;;;;;10359606;28;20030;-75
2022/07/21 02:56:05;;;;;;;4.67;3.00;;;;;;;;;;10359669;28;20030;-75
2022/07/21 03:01:06;;;;;;;3.93;3.30;;;;;;;;;;10359565;28;20456;-74
2022/07/21 03:06:06;;;;;;;4.88;2.90;;;;;;;;;;10359301;28;20468;-74
2022/07/21 03:11:06;;;;;;;5.40;3.30;;;;;;;;;;10376751;28;20522;-76
2022/07/21 03:16:07;;;;;;;7.67;4.20;;;;;;;;;;10376522;28;20026;-75
2022/07/21 03:21:07;;;;;;;7.80;3.88;;;;;;;;;;10358770;28;20117;-75
2022/07/21 03:26:08;;;;;;;6.20;3.60;;;;;;;;;;10374827;28;20060;-75
2022/07/21 03:31:08;;;;;;;6.53;3.47;;;;;;;;;;10358294;28;20037;-75
2022/07/21 03:36:09;;;;;;;6.20;3.80;;;;;;;;;;10357938;28;20034;-74
2022/07/21 03:41:09;;;;;;;8.23;3.88;;;;;;;;;;10357774;28;20064;-74
2022/07/21 03:46:09;;;;;;;13.53;3.77;;;;;;;;;;10375315;28;20034;-75
2022/07/21 03:51:10;;;;;;;6.82;3.83;;;;;;;;;;10357223;28;20026;-74
2022/07/21 03:56:11;;;;;;;6.20;3.92;;;;;;;;;;10357058;28;20030;-75
2022/07/21 04:01:11;;;;;;;5.60;3.55;;;;;;;;;;10356857;28;20046;-75
2022/07/21 04:06:12;;;;;;;5.50;3.78;;;;;;;;;;10356578;28;20034;-75
2022/07/21 04:11:13;;;;;;;4.80;3.60;;;;;;;;;;10356540;28;20064;-76
2022/07/21 04:16:13;;;;;;;6.60;3.35;;;;;;;;;;10356441;28;20522;-74
2022/07/21 04:21:13;;;;;;;5.97;4.40;;;;;;;;;;10356141;28;20029;-75
2022/07/21 04:26:14;;;;;;;12.15;4.30;;;;;;;;;;10373526;28;20030;-74
2022/07/21 04:31:14;;;;;;;8.20;4.95;;;;;;;;;;10355915;28;20030;-75
2022/07/21 04:36:14;;;;;;;7.40;4.45;;;;;;;;;;10355399;28;20042;-74
2022/07/21 04:41:14;;;;;;;7.75;3.88;;;;;;;;;;10355145;28;20057;-74
2022/07/21 04:46:15;;;;;;;7.10;3.90;;;;;;;;;;10355120;28;20488;-74
2022/07/21 04:51:15;;;;;;;9.02;3.78;;;;;;;;;;10354873;28;20034;-74
2022/07/21 04:56:15;;;;;;;6.05;3.78;;;;;;;;;;10354394;28;20034;-74
2022/07/21 05:01:18;;;;;;;4.55;3.17;;;;;;;;;;10354454;28;20060;-75
2022/07/21 05:06:18;;;;;;;8.60;3.22;;;;;;;;;;10371714;28;20038;-75
2022/07/21 05:11:18;;;;;;;6.82;4.03;;;;;;;;;;10354274;28;20021;-74
2022/07/21 05:16:19;;;;;;;4.13;3.33;;;;;;;;;;10353777;28;20037;-74
2022/07/21 05:21:19;;;;;;;6.43;3.15;;;;;;;;;;10337467;28;20034;-75
2022/07/21 05:26:19;;;;;;;8.20;3.10;;;;;;;;;;10370880;28;20029;-74
2022/07/21 05:31:20;;;;;;;6.18;3.08;;;;;;;;;;10353214;28;20028;-75
2022/07/21 05:36:20;;;;;;;6.80;2.92;;;;;;;;;;10353073;28;20524;-75
2022/07/21 05:41:21;;;;;;;6.28;3.08;;;;;;;;;;10353382;28;20112;-75
2022/07/21 05:46:21;;;;;;;7.70;3.25;;;;;;;;;;10352601;28;20083;-75
2022/07/21 05:51:21;;;;;;;6.93;3.00;;;;;;;;;;10351591;28;20025;-75
2022/07/21 05:56:22;;;;;;;8.48;2.97;;;;;;;;;;10352852;28;20423;-76
2022/07/21 06:01:22;;;;;;;6.68;3.08;;;;;;;;;;10352044;28;20057;-75
2022/07/21 06:06:23;;;;;;;5.22;2.78;;;;;;;;;;10352415;28;20049;-75
2022/07/21 06:11:24;;;;;;;9.53;3.27;;;;;;;;;;10352428;28;20100;-75
2022/07/21 06:16:24;;;;;;;7.22;3.50;;;;;;;;;;10352552;28;20033;-74
2022/07/21 06:21:24;;;;;;;7.43;2.95;;;;;;;;;;10369913;28;20052;-75
2022/07/21 06:26:25;;;;;;;6.15;3.13;;;;;;;;;;10352240;28;20030;-76
2022/07/21 06:31:25;;;;;;;11.73;4.85;;;;;;;;;;10352533;28;20030;-75
2022/07/21 06:36:25;;;;;;;8.63;3.10;;;;;;;;;;10352980;28;20038;-75
2022/07/21 06:41:26;;;;;;;6.55;3.17;;;;;;;;;;10351875;28;20420;-75
2022/07/21 06:46:26;;;;;;;13.77;3.38;;;;;;;;;;10351638;28;20439;-74
2022/07/21 06:51:26;;;;;;;11.40;2.78;;;;;;;;;;10351808;28;20115;-75
2022/07/21 06:56:27;;;;;;;8.85;3.30;;;;;;;;;;10351760;28;20041;-75
2022/07/21 07:01:27;;;;;;;4.07;2.30;;;;;;;;;;10353496;28;20496;-75
2022/07/21 07:06:27;;;;;;;7.57;2.80;;;;;;;;;;10376535;28;20523;-75
2022/07/21 07:11:27;;;;;;;10.07;2.78;;;;;;;;;;10359047;28;20088;-75
2022/07/21 07:16:28;;;;;;;10.43;3.17;;;;;;;;;;10342567;28;20125;-76
2022/07/21 07:21:28;;;;;;;9.68;3.35;;;;;;;;;;10358376;28;20026;-75
2022/07/21 07:26:28;;;;;;;11.65;3.10;;;;;;;;;;10358160;28;20161;-75
2022/07/21 07:31:29;;;;;;;3.67;2.40;;;;;;;;;;10357746;28;20022;-76
2022/07/21 07:36:29;;;;;;;11.40;3.63;;;;;;;;;;10357799;28;20087;-74
2022/07/21 07:41:31;;;;;;;4.32;2.17;;;;;;;;;;10357693;28;20030;-75
2022/07/21 07:46:31;;;;;;;12.18;2.20;;;;;;;;;;10357658;28;20026;-75
2022/07/21 07:51:31;;;;;;;7.38;2.45;;;;;;;;;;10357622;28;20419;-75
2022/07/21 07:56:32;;;;;;;20.35;3.13;;;;;;;;;;10357288;28;20389;-75
2022/07/21 08:01:32;;;;;;;6.80;2.03;;;;;;;;;;10356892;28;20069;-75
2022/07/21 08:06:32;;;;;;;2.38;1.45;;;;;;;;;;10356408;28;20088;-76
2022/07/21 08:11:33;;;;;;;4.93;1.60;;;;;;;;;;10373132;28;20034;-76
2022/07/21 08:16:34;;;;;;;4.00;1.73;;;;;;;;;;10373422;28;20030;-75
2022/07/21 08:21:34;;;;;;;4.40;1.88;;;;;;;;;;10356121;28;20057;-75
2022/07/21 08:26:35;;;;;;;6.35;1.70;;;;;;;;;;10356038;28;20026;-75
2022/07/21 08:31:35;;;;;;;5.40;2.13;;;;;;;;;;10355877;28;20443;-75
2022/07/21 08:36:35;;;;;;;4.70;1.50;;;;;;;;;;10355481;28;20034;-75
2022/07/21 08:41:37;;;;;;;5.03;1.40;;;;;;;;;;10355253;28;20124;-75
2022/07/21 08:46:40;;;;;;;6.80;1.85;;;;;;;;;;10355185;28;20030;-75
2022/07/21 08:51:40;;;;;;;9.10;1.75;;;;;;;;;;10354845;28;20120;-75
2022/07/21 08:56:41;;;;;;;7.20;1.73;;;;;;;;;;10354914;28;20128;-75
2022/07/21 09:01:41;;;;;;;3.70;1.10;;;;;;;;;;10354306;28;20041;-76
2022/07/21 09:06:59;;;;;;;2.60;1.73;;;;;;;;;;10354421;28;20500;-75
2022/07/21 09:12:00;;;;;;;6.68;1.60;;;;;;;;;;10354287;28;20029;-75
2022/07/21 09:17:02;;;;;;;8.07;1.42;;;;;;;;;;10353967;28;20049;-76
2022/07/21 09:22:04;;;;;;;5.53;1.75;;;;;;;;;;10353916;28;20029;-75
2022/07/21 09:27:11;;;;;;;7.22;1.50;;;;;;;;;;10370632;28;20112;-76
2022/07/21 09:32:13;;;;;;;6.63;1.10;;;;;;;;;;10353605;28;20487;-75
2022/07/21 09:37:13;;;;;;;6.63;1.67;;;;;;;;;;10353350;28;20072;-74
2022/07/21 09:42:19;;;;;;;3.70;1.30;;;;;;;;;;10370757;28;20065;-74
2022/07/21 09:47:21;;;;;;;4.05;1.30;;;;;;;;;;10353258;28;20026;-74
2022/07/21 09:52:29;;;;;;;9.35;1.55;;;;;;;;;;10336610;28;20128;-76
2022/07/21 09:57:29;;;;;;;2.63;1.25;;;;;;;;;;10352833;28;20042;-74
2022/07/21 10:02:31;;;;;;;4.50;1.23;;;;;;;;;;10352522;28;20033;-74
2022/07/21 10:07:32;;;;;;;4.65;1.60;;;;;;;;;;10352211;28;20045;-74
2022/07/21 10:12:33;;;;;;;2.67;1.52;;;;;;;;;;10352289;28;20411;-74
2022/07/21 10:17:33;;;;;;;5.70;1.37;;;;;;;;;;10352397;28;20033;-75
2022/07/21 10:22:52;;;;;;;2.17;1.07;;;;;;;;;;10352378;28;20064;-76
2022/07/21 10:28:11;;;;;;;6.72;1.60;;;;;;;;;;10368402;28;20297;-75
2022/07/21 10:33:12;;;;;;;8.45;1.27;;;;;;;;;;10351772;28;20038;-74
2022/07/21 10:38:29;;;;;;;8.30;1.40;;;;;;;;;;10356880;28;20034;-75
2022/07/21 10:43:29;;;;;;;2.65;1.10;;;;;;;;;;10359751;28;20076;-75
2022/07/21 10:48:42;;;;;;;1.98;1.30;;;;;;;;;;10359403;28;20105;-73
2022/07/21 10:53:44;;;;;;;1.67;1.30;;;;;;;;;;10360066;28;20431;-74
2022/07/21 10:58:44;;;;;;;5.00;2.45;;;;;;;;;;10359332;28;20113;-75
2022/07/21 11:03:45;;;;;;;6.35;1.52;;;;;;;;;;10359121;28;20136;-75
2022/07/21 11:08:47;;;;;;;5.28;1.60;;;;;;;;;;10359470;28;20092;-74
2022/07/21 11:14:00;;;;;;;10.15;1.95;;;;;;;;;;10385070;28;20049;-73
2022/07/21 11:19:00;;;;;;;6.57;1.90;;;;;;;;;;10358659;28;20033;-73
2022/07/21 11:24:00;;;;;;;2.53;1.60;;;;;;;;;;10358209;28;20415;-75
2022/07/21 11:29:05;;;;;;;2.95;1.92;;;;;;;;;;10375540;28;20495;-74
2022/07/21 11:34:05;;;;;;;2.53;1.80;;;;;;;;;;10357949;28;20036;-74
2022/07/21 11:39:07;;;;;;;5.15;1.83;;;;;;;;;;10357764;28;20409;-74
2022/07/21 11:44:09;;;;;;;3.92;1.95;;;;;;;;;;10375162;28;20038;-75
2022/07/21 11:49:09;;;;;;;3.53;2.05;;;;;;;;;;10374029;28;20038;-74
2022/07/21 11:54:18;;;;;;;4.63;1.85;;;;;;;;;;10374866;28;20162;-75
2022/07/21 11:59:19;;;;;;;4.07;2.22;;;;;;;;;;10356976;28;20048;-74
2022/07/21 12:04:37;;;;;;;3.75;1.85;;;;;;;;;;10340077;28;20478;-74
2022/07/21 12:09:38;;;;;;;6.47;2.40;;;;;;;;;;10356661;28;20034;-74
2022/07/21 12:14:42;;;;;;;6.88;2.47;;;;;;;;;;10356420;28;20569;-74
2022/07/21 12:19:42;;;;;;;3.75;2.10;;;;;;;;;;10339685;28;20117;-74
2022/07/21 12:24:57;;;;;;;4.80;1.95;;;;;;;;;;10355817;28;20121;-74
2022/07/21 12:29:58;;;;;;;12.75;2.60;;;;;;;;;;10373299;28;20036;-74
2022/07/21 12:34:58;;;;;;;7.68;2.67;;;;;;;;;;10355795;28;20040;-75
2022/07/21 12:40:03;;;;;;;4.32;1.95;;;;;;;;;;10355281;28;20048;-74
2022/07/21 12:45:13;;;;;;;6.32;2.45;;;;;;;;;;10355118;28;20045;-74
2022/07/21 12:50:14;;;;;;;6.68;2.38;;;;;;;;;;10354693;28;20455;-74
2022/07/21 12:55:14;;;;;;;4.50;2.58;;;;;;;;;;10354788;28;20044;-74
2022/07/21 13:00:15;;;;;;;3.63;2.40;;;;;;;;;;10354257;28;20038;-76
2022/07/21 13:05:15;;;;;;;2.60;2.30;;;;;;;;;;10354482;28;20404;-74
2022/07/21 13:10:16;;;;;;;5.47;2.58;;;;;;;;;;10354233;28;20136;-76
2022/07/21 13:15:16;;;;;;;10.15;2.22;;;;;;;;;;10371441;28;20117;-74
2022/07/21 13:20:17;;;;;;;2.87;2.00;;;;;;;;;;10353932;28;20037;-74
2022/07/21 13:25:17;;;;;;;7.10;3.27;;;;;;;;;;10353654;28;20048;-74
2022/07/21 13:30:19;;;;;;;4.85;2.50;;;;;;;;;;10353543;28;20033;-75
2022/07/21 13:35:19;;;;;;;3.67;2.17;;;;;;;;;;10353413;28;20045;-75
2022/07/21 13:40:19;;;;;;;7.35;2.25;;;;;;;;;;10353152;28;20042;-76
2022/07/21 13:45:20;;;;;;;5.43;2.28;;;;;;;;;;10352976;28;20033;-73
2022/07/21 13:50:20;;;;;;;9.50;2.20;;;;;;;;;;10352765;28;20053;-73
2022/07/21 13:55:20;;;;;;;2.72;1.98;;;;;;;;;;10352416;28;20026;-75
2022/07/21 14:00:21;;;;;;;3.03;1.75;;;;;;;;;;10352630;28;20103;-74
2022/07/21 14:05:21;;;;;;;3.53;1.70;;;;;;;;;;10370318;28;20052;-75
2022/07/21 14:10:21;;;;;;;7.80;2.25;;;;;;;;;;10354773;28;20264;-75
2022/07/21 14:15:21;;;;;;;5.50;2.30;;;;;;;;;;10365664;28;20038;-74
2022/07/21 14:20:22;;;;;;;7.07;2.35;;;;;;;;;;10365368;28;20026;-74
2022/07/21 14:25:24;;;;;;;8.68;2.78;;;;;;;;;;10365674;28;20179;-74
2022/07/21 14:30:25;;;;;;;5.13;2.30;;;;;;;;;;10383514;28;20050;-74
2022/07/21 14:35:27;;;;;;;3.50;2.03;;;;;;;;;;10382834;28;20038;-74
2022/07/21 14:40:27;;;;;;;3.75;2.22;;;;;;;;;;10365337;28;20033;-73
2022/07/21 14:45:28;;;;;;;2.97;2.00;;;;;;;;;;10382879;28;20217;-74
2022/07/21 14:50:28;;;;;;;14.47;3.13;;;;;;;;;;10348746;28;20029;-73
2022/07/21 14:55:30;;;;;;;8.97;2.40;;;;;;;;;;10365202;28;20042;-75
2022/07/21 15:00:30;;;;;;;9.07;2.40;;;;;;;;;;10364884;28;20123;-74
2022/07/21 15:05:30;;;;;;;10.00;2.35;;;;;;;;;;10365047;28;20511;-75
2022/07/21 15:10:30;;;;;;;7.22;2.10;;;;;;;;;;10364786;28;20052;-75
2022/07/21 15:15:31;;;;;;;4.88;2.45;;;;;;;;;;10364587;28;20037;-74
2022/07/21 15:20:31;;;;;;;7.30;2.25;;;;;;;;;;10364398;28;20411;-74
2022/07/21 15:25:31;;;;;;;2.30;1.70;;;;;;;;;;10358916;28;20030;-74
2022/07/21 15:30:32;;;;;;;7.15;2.13;;;;;;;;;;10375536;28;20029;-74
2022/07/21 15:35:32;;;;;;;6.32;2.15;;;;;;;;;;10375334;28;20452;-75
2022/07/21 15:40:33;;;;;;;10.20;2.97;;;;;;;;;;10375383;28;20037;-74
2022/07/21 15:45:33;;;;;;;8.40;2.30;;;;;;;;;;10357288;28;20030;-74
2022/07/21 15:50:33;;;;;;;5.00;2.72;;;;;;;;;;10357034;28;20033;-74
2022/07/21 15:55:34;;;;;;;7.40;2.00;;;;;;;;;;10374694;28;20030;-75
2022/07/21 16:00:34;;;;;;;7.93;2.63;;;;;;;;;;10374264;28;20037;-74
2022/07/21 16:05:34;;;;;;;4.07;2.40;;;;;;;;;;10356472;28;20046;-74
2022/07/21 16:10:34;;;;;;;6.65;2.72;;;;;;;;;;10374144;28;20037;-77
2022/07/21 16:15:35;;;;;;;4.50;2.40;;;;;;;;;;10356325;28;20062;-76
2022/07/21 16:20:35;;;;;;;5.85;2.30;;;;;;;;;;10355936;28;20495;-73
2022/07/21 16:25:35;;;;;;;13.10;3.30;;;;;;;;;;10355892;28;20029;-75
2022/07/21 16:30:35;;;;;;;8.95;3.40;;;;;;;;;;10355507;28;20034;-76
2022/07/21 16:35:36;;;;;;;11.05;3.25;;;;;;;;;;10355027;28;20487;-75
2022/07/21 16:40:38;;;;;;;11.15;3.10;;;;;;;;;;10356267;28;20507;-75
2022/07/21 16:45:39;;;;;;;8.85;3.05;;;;;;;;;;10373807;28;20030;-75
2022/07/21 16:50:39;;;;;;;10.25;3.45;;;;;;;;;;10354791;28;20034;-75
2022/07/21 16:55:39;;;;;;;7.22;2.58;;;;;;;;;;10354675;28;20038;-75
2022/07/21 17:00:40;;;;;;;26.67;4.53;;;;;;;;;;10354418;28;20061;-75
2022/07/21 17:05:40;;;;;;;12.00;3.33;;;;;;;;;;10354636;28;20033;-75
2022/07/21 17:10:40;;;;;;;9.53;4.63;;;;;;;;;;10354015;28;20045;-75
2022/07/21 17:15:40;;;;;;;19.20;6.35;;;;;;;;;;10353963;28;20038;-76
2022/07/21 17:20:41;;;;;;;5.93;2.42;;;;;;;;;;10353965;28;20079;-75
2022/07/21 17:25:41;;;;;;;28.33;11.10;;;;;;;;;;10353654;28;20034;-76
2022/07/21 17:30:43;;;;;;;7.70;3.53;;;;;;;;;;10353416;28;20021;-75
2022/07/21 17:35:43;;;;;;;6.32;3.20;;;;;;;;;;10371293;28;20033;-75
2022/07/21 17:40:43;;;;;;;8.85;4.45;;;;;;;;;;10371299;28;20484;-75
2022/07/21 17:45:43;;;;;;;13.25;4.60;;;;;;;;;;10370034;28;20108;-75
2022/07/21 17:50:44;;;;;;;12.65;4.78;;;;;;;;;;10370670;28;20092;-75
2022/07/21 17:55:44;;;;;;;8.85;4.68;;;;;;;;;;10353038;28;20040;-76
2022/07/21 18:00:44;;;;;;;16.97;6.97;;;;;;;;;;10352536;28;20034;-75
2022/07/21 18:05:45;;;;;;;10.13;4.50;;;;;;;;;;10370518;28;20037;-75
2022/07/21 18:10:46;;;;;;;10.48;4.28;;;;;;;;;;10370511;28;20041;-75
2022/07/21 18:15:46;;;;;;;11.02;3.67;;;;;;;;;;10352532;28;20042;-75
2022/07/21 18:20:46;;;;;;;7.45;3.38;;;;;;;;;;10352434;28;20034;-75
2022/07/21 18:25:47;;;;;;;9.85;3.80;;;;;;;;;;10369845;28;20184;-75
2022/07/21 18:30:48;;;;;;;12.33;3.43;;;;;;;;;;10352244;28;20025;-74
2022/07/21 18:35:48;;;;;;;9.38;4.18;;;;;;;;;;10352121;28;20408;-73
2022/07/21 18:40:48;;;;;;;8.32;3.80;;;;;;;;;;10369941;28;20500;-75
2022/07/21 18:45:49;;;;;;;7.67;2.80;;;;;;;;;;10352022;28;20415;-76
2022/07/21 18:50:49;;;;;;;10.35;4.05;;;;;;;;;;10351660;28;20580;-75
2022/07/21 18:55:49;;;;;;;11.25;4.35;;;;;;;;;;10351635;28;20471;-74
2022/07/21 19:00:49;;;;;;;11.68;4.30;;;;;;;;;;10359096;28;20069;-75
2022/07/21 19:05:50;;;;;;;7.67;3.67;;;;;;;;;;10342819;28;20130;-74
2022/07/21 19:10:50;;;;;;;8.77;4.32;;;;;;;;;;10376820;28;20030;-74
2022/07/21 19:15:50;;;;;;;12.83;4.10;;;;;;;;;;10358788;28;20038;-74
2022/07/21 19:20:51;;;;;;;7.93;4.38;;;;;;;;;;10358569;28;20026;-74
2022/07/21 19:25:51;;;;;;;9.75;3.70;;;;;;;;;;10358444;28;20124;-74
2022/07/21 19:30:51;;;;;;;9.13;4.05;;;;;;;;;;10358512;28;20030;-74
2022/07/21 19:35:51;;;;;;;7.25;3.85;;;;;;;;;;10358615;28;20057;-74
2022/07/21 19:40:52;;;;;;;10.30;4.72;;;;;;;;;;10358062;28;20488;-74
2022/07/21 19:45:52;;;;;;;11.60;4.20;;;;;;;;;;10357948;28;20124;-74
2022/07/21 19:50:52;;;;;;;7.10;4.37;;;;;;;;;;10375341;28;20026;-74
2022/07/21 19:55:52;;;;;;;11.55;3.75;;;;;;;;;;10357583;28;20088;-75
2022/07/21 20:00:53;;;;;;;10.23;4.10;;;;;;;;;;10357509;28;20037;-74
2022/07/21 20:05:53;;;;;;;6.97;3.27;;;;;;;;;;10357350;28;20174;-74
2022/07/21 20:10:53;;;;;;;6.40;3.40;;;;;;;;;;10356197;28;20129;-75
2022/07/21 20:15:54;;;;;;;10.40;4.07;;;;;;;;;;10356630;28;20419;-74
2022/07/21 20:20:55;;;;;;;9.13;4.97;;;;;;;;;;10356805;28;20415;-74
2022/07/21 20:25:55;;;;;;;7.43;3.30;;;;;;;;;;10356507;28;20026;-74
2022/07/21 20:30:55;;;;;;;7.97;3.10;;;;;;;;;;10356121;28;20482;-74
2022/07/21 20:35:56;;;;;;;7.85;3.53;;;;;;;;;;10356168;28;20117;-75
2022/07/21 20:40:56;;;;;;;13.13;4.35;;;;;;;;;;10356132;28;20038;-75
2022/07/21 20:45:56;;;;;;;16.83;3.90;;;;;;;;;;10373241;28;20061;-75
2022/07/21 20:50:57;;;;;;;10.30;4.00;;;;;;;;;;10355413;28;20034;-75
2022/07/21 20:55:58;;;;;;;8.52;4.22;;;;;;;;;;10355420;28;20417;-75
2022/07/21 21:00:59;;;;;;;7.93;4.10;;;;;;;;;;10373034;28;20042;-75
2022/07/21 21:06:00;;;;;;;8.93;4.50;;;;;;;;;;10354782;28;20038;-75
2022/07/21 21:11:01;;;;;;;7.18;4.38;;;;;;;;;;10354832;28;20119;-74
2022/07/21 21:16:01;;;;;;;8.60;3.88;;;;;;;;;;10372286;28;20078;-75
2022/07/21 21:21:01;;;;;;;5.93;3.77;;;;;;;;;;10354465;28;20540;-74
2022/07/21 21:26:01;;;;;;;6.03;3.77;;;;;;;;;;10354406;28;20026;-74
2022/07/21 21:31:02;;;;;;;11.82;3.78;;;;;;;;;;10371827;28;20041;-74
2022/07/21 21:36:03;;;;;;;7.38;4.03;;;;;;;;;;10353910;28;20026;-74
2022/07/21 21:41:03;;;;;;;9.70;3.43;;;;;;;;;;10353881;28;20018;-74
2022/07/21 21:46:08;;;;;;;6.60;3.57;;;;;;;;;;10371460;28;20117;-74
2022/07/21 21:51:08;;;;;;;5.95;3.70;;;;;;;;;;10372111;28;20117;-74
2022/07/21 21:56:08;;;;;;;6.43;3.50;;;;;;;;;;10353415;28;20125;-75
2022/07/21 22:01:09;;;;;;;7.68;3.70;;;;;;;;;;10353286;28;20512;-74
2022/07/21 22:06:09;;;;;;;7.28;3.60;;;;;;;;;;10353278;28;20496;-75
2022/07/21 22:11:09;;;;;;;6.90;3.60;;;;;;;;;;10353475;28;20088;-74
2022/07/21 22:16:09;;;;;;;10.23;3.92;;;;;;;;;;10353418;28;20037;-74
2022/07/21 22:21:09;;;;;;;11.85;3.65;;;;;;;;;;10352895;28;20527;-73
2022/07/21 22:26:10;;;;;;;9.13;3.70;;;;;;;;;;10336594;28;20590;-74
2022/07/21 22:31:11;;;;;;;7.32;3.38;;;;;;;;;;10354055;28;20030;-76
2022/07/21 22:36:11;;;;;;;5.13;3.53;;;;;;;;;;10360522;28;20156;-75
2022/07/21 22:41:11;;;;;;;9.55;4.38;;;;;;;;;;10360707;28;20036;-75
2022/07/21 22:46:12;;;;;;;7.65;3.97;;;;;;;;;;10360538;28;20040;-75
2022/07/21 22:51:12;;;;;;;9.90;3.67;;;;;;;;;;10377671;28;20124;-75
2022/07/21 22:56:12;;;;;;;8.10;4.00;;;;;;;;;;10359933;28;20041;-76
2022/07/21 23:01:12;;;;;;;8.95;4.00;;;;;;;;;;10377685;28;20034;-74
2022/07/21 23:06:12;;;;;;;9.00;4.00;;;;;;;;;;10377271;28;20048;-75
2022/07/21 23:11:13;;;;;;;9.27;4.32;;;;;;;;;;10359340;28;20037;-75
2022/07/21 23:16:13;;;;;;;6.93;4.10;;;;;;;;;;10359375;28;20498;-74
2022/07/21 23:21:13;;;;;;;7.65;3.70;;;;;;;;;;10359422;28;20034;-76
2022/07/21 23:26:14;;;;;;;17.80;4.10;;;;;;;;;;10358914;28;20029;-75
2022/07/21 23:31:14;;;;;;;9.07;4.03;;;;;;;;;;10358795;28;20045;-74
2022/07/21 23:36:14;;;;;;;6.20;4.13;;;;;;;;;;10358629;28;20073;-75
2022/07/21 23:41:14;;;;;;;9.88;4.50;;;;;;;;;;10358189;28;20037;-74
2022/07/21 23:46:14;;;;;;;10.00;5.10;;;;;;;;;;10356777;28;20041;-74
2022/07/21 23:51:15;;;;;;;8.15;4.35;;;;;;;;;;10358446;28;20034;-74
2022/07/21 23:56:15;;;;;;;5.73;3.67;;;;;;;;;;10357651;28;20029;-74
